METAR Data
IDs: Format: Raw Decoded Include TAF

Data at: 2050 UTC 08 Aug 2020

KSOW 082035Z AUTO 09012G18KT 9SM BKN090 BKN110 27/07 A3031 RMK AO2
KSOW 082015Z AUTO 05009G18KT 10SM BKN095 BKN110 28/05 A3031 RMK AO2
KSOW 081955Z AUTO 08018G26KT 340V140 10SM SCT095 BKN120 28/05 A3030 RMK AO2
KSOW 081935Z AUTO 13007KT 110V180 10SM CLR 29/04 A3031 RMK AO2
KSOW 081915Z AUTO VRB04G13KT 9SM FEW065 FEW075 FEW100 28/03 A3032 RMK AO2
KSOW 081855Z AUTO 22011KT 9SM CLR 30/05 A3032 RMK AO2
KSOW 081835Z AUTO VRB04G12KT 9SM CLR 29/04 A3033 RMK AO2 LTG DSNT E
KSOW 081815Z AUTO VRB05G13KT 9SM FEW075 FEW090 FEW120 28/05 A3034 RMK AO2
KSOW 081755Z AUTO 24004KT 9SM SCT110 28/05 A3034 RMK AO2
KSOW 081735Z AUTO 00000KT 9SM BKN100 27/05 A3035 RMK AO2
KSOW 081715Z AUTO 30006KT 10SM SCT100 26/04 A3036 RMK AO2
KSOW 081655Z AUTO VRB03KT 9SM SCT110 26/05 A3035 RMK AO2
KSOW 081635Z AUTO VRB06KT 9SM SCT110 27/05 A3036 RMK AO2
KSOW 081615Z AUTO 28005KT 10SM SCT110 25/05 A3036 RMK AO2
KSOW 081555Z AUTO 25005KT 10SM SCT100 BKN120 26/05 A3035 RMK AO2
KSOW 081535Z AUTO 00000KT 10SM SCT110 26/05 A3035 RMK AO2
KSOW 081515Z AUTO VRB03KT 10SM FEW110 25/06 A3036 RMK AO2
KSOW 081455Z AUTO 20007KT 10SM CLR 25/06 A3035 RMK AO2
KSOW 081435Z AUTO 20006KT 10SM CLR 23/07 A3036 RMK AO2
KSOW 081415Z AUTO 22004KT 10SM FEW120 23/06 A3035 RMK AO2
KSOW 081355Z AUTO 00000KT 9SM FEW120 21/06 A3035 RMK AO2
KSOW 081335Z AUTO 00000KT 9SM CLR 19/05 A3034 RMK AO2
KSOW 081315Z AUTO 00000KT 10SM CLR 16/05 A3034 RMK AO2
KSOW 081255Z AUTO 17003KT 9SM CLR 15/04 A3034 RMK AO2
KSOW 081235Z AUTO 00000KT 10SM CLR 16/04 A3033 RMK AO2
KSOW 081215Z AUTO 09003KT 10SM CLR 16/04 A3032 RMK AO2
KSOW 081155Z AUTO 00000KT 10SM CLR 17/05 A3032 RMK AO2
KSOW 081135Z AUTO 00000KT 10SM CLR 17/04 A3031 RMK AO2
KSOW 081115Z AUTO 17003KT 10SM CLR 18/04 A3031 RMK AO2
KSOW 081055Z AUTO 18007KT 10SM CLR 18/04 A3030 RMK AO2
KSOW 081035Z AUTO 17007KT 10SM CLR 18/04 A3030 RMK AO2
KSOW 081015Z AUTO 17007KT 10SM CLR 18/04 A3031 RMK AO2
KSOW 080955Z AUTO 18005KT 10SM CLR 18/04 A3030 RMK AO2
KSOW 080935Z AUTO 18006KT 10SM CLR 19/04 A3030 RMK AO2
KSOW 080915Z AUTO 17008KT 10SM CLR 19/04 A3030 RMK AO2
KSOW 080855Z AUTO 18008KT 10SM CLR 18/04 A3030 RMK AO2
KSOW 080835Z AUTO 18009KT 10SM CLR 18/04 A3030 RMK AO2
KSOW 080815Z AUTO 17008KT 10SM CLR 18/03 A3030 RMK AO2
KSOW 080755Z AUTO 17007KT 10SM CLR 18/03 A3031 RMK AO2
KSOW 080735Z AUTO 18007KT 10SM CLR 18/03 A3031 RMK AO2
KSOW 080715Z AUTO 18008KT 10SM CLR 19/03 A3032 RMK AO2
KSOW 080655Z AUTO 19009KT 10SM CLR 20/03 A3031 RMK AO2
KSOW 080635Z AUTO 18009KT 10SM CLR 20/03 A3031 RMK AO2
KSOW 080615Z AUTO 18009KT 10SM CLR 20/02 A3031 RMK AO2
KSOW 080555Z AUTO 17008KT 10SM CLR 20/02 A3031 RMK AO2
KSOW 080535Z AUTO 17007KT 10SM CLR 20/02 A3031 RMK AO2
KSOW 080515Z AUTO 17007KT 10SM CLR 21/02 A3031 RMK AO2
KSOW 080455Z AUTO 17007KT 10SM CLR 21/02 A3031 RMK AO2
KSOW 080435Z AUTO 17008KT 10SM CLR 21/02 A3030 RMK AO2
KSOW 080415Z AUTO 17008KT 10SM CLR 22/03 A3030 RMK AO2
KSOW 080355Z AUTO 18007KT 10SM CLR 22/03 A3029 RMK AO2
KSOW 080335Z AUTO 18009KT 10SM CLR 22/03 A3029 RMK AO2
KSOW 080315Z AUTO 18007KT 10SM CLR 23/03 A3028 RMK AO2
KSOW 080255Z AUTO 17008KT 10SM CLR 24/03 A3027 RMK AO2
KSOW 080235Z AUTO 17008KT 10SM CLR 25/03 A3026 RMK AO2
KSOW 080215Z AUTO 18008KT 10SM CLR 26/02 A3026 RMK AO2
KSOW 080155Z AUTO 19010G15KT 10SM CLR 26/02 A3025 RMK AO2
KSOW 080135Z AUTO 19014KT 10SM CLR 27/02 A3025 RMK AO2
KSOW 080115Z AUTO 20012G17KT 10SM FEW120 28/02 A3024 RMK AO2
KSOW 080055Z AUTO 18013KT 9SM CLR 28/01 A3024 RMK AO2
KSOW 080035Z AUTO 22013G20KT 10SM CLR 29/01 A3024 RMK AO2
KSOW 080015Z AUTO 21014G21KT 10SM FEW110 29/01 A3023 RMK AO2
KSOW 072355Z AUTO 19013KT 160V220 10SM FEW095 BKN120 29/02 A3024 RMK AO2
KSOW 072335Z AUTO 20015G22KT 10SM SCT120 30/01 A3024 RMK AO2
KSOW 072315Z AUTO 21014G23KT 10SM CLR 29/01 A3024 RMK AO2
KSOW 072255Z AUTO 19013G20KT 10SM SCT110 30/00 A3024 RMK AO2
KSOW 072235Z AUTO 23014G22KT 10SM BKN110 30/M00 A3025 RMK AO2
KSOW 072215Z AUTO 20015G21KT 170V240 10SM SCT110 30/00 A3025 RMK AO2
KSOW 072155Z AUTO 22011G20KT 10SM FEW100 SCT120 30/00 A3025 RMK AO2
KSOW 072135Z AUTO 21009G21KT 10SM FEW050 SCT110 30/M00 A3026 RMK AO2
KSOW 072115Z AUTO 21013G22KT 10SM FEW065 BKN110 30/M00 A3026 RMK AO2
KSOW 072055Z AUTO 22014G20KT 10SM FEW065 FEW075 SCT100 30/M01 A3026 RMK AO2
KSOW 072035Z AUTO 21014G20KT 10SM FEW110 30/00 A3026 RMK AO2
KSOW 072015Z AUTO 19013G21KT 150V210 10SM SCT110 30/00 A3027 RMK AO2
KSOW 071955Z AUTO 21015KT 180V240 10SM FEW100 29/01 A3027 RMK AO2
KSOW 071935Z AUTO 17007G13KT 140V270 9SM SCT100 29/01 A3028 RMK AO2 LTG DSNT E
KSOW 071915Z AUTO VRB05G12KT 10SM BKN100 28/01 A3028 RMK AO2
KSOW 071855Z AUTO 22014KT 10SM FEW060 FEW080 BKN100 28/00 A3029 RMK AO2
KSOW 071835Z AUTO VRB04G14KT 10SM FEW075 BKN100 28/M01 A3029 RMK AO2
KSOW 071815Z AUTO VRB06G17KT 10SM FEW100 FEW120 28/M00 A3029 RMK AO2
KSOW 071755Z AUTO 22009G16KT 9SM FEW100 FEW120 28/M00 A3030 RMK AO2
KSOW 071735Z AUTO 22008KT 10SM BKN095 BKN110 27/02 A3030 RMK AO2
KSOW 071715Z AUTO 20009KT 10SM BKN100 26/02 A3031 RMK AO2
KSOW 071655Z AUTO 19009KT 10SM BKN095 26/04 A3031 RMK AO2
KSOW 071635Z AUTO 24007G16KT 10SM BKN095 BKN110 27/05 A3030 RMK AO2
KSOW 071615Z AUTO 23010KT 10SM FEW065 BKN095 27/04 A3030 RMK AO2
KSOW 071555Z AUTO VRB05G12KT 9SM CLR 26/04 A3030 RMK AO2
KSOW 071535Z AUTO 25007KT 10SM CLR 26/03 A3029 RMK AO2
KSOW 071515Z AUTO 23006KT 10SM CLR 25/02 A3029 RMK AO2
KSOW 071455Z AUTO 20006KT 9SM CLR 24/03 A3029 RMK AO2
KSOW 071435Z AUTO 00000KT 9SM CLR 22/04 A3028 RMK AO2
KSOW 071415Z AUTO 00000KT 10SM CLR 21/03 A3028 RMK AO2
KSOW 071355Z AUTO 00000KT 10SM CLR 19/03 A3027 RMK AO2
KSOW 071335Z AUTO 00000KT 10SM CLR 17/02 A3026 RMK AO2
KSOW 071315Z AUTO 00000KT 9SM CLR 17/01 A3026 RMK AO2
KSOW 071255Z AUTO 00000KT 8SM CLR 16/00 A3026 RMK AO2
KSOW 071235Z AUTO 18003KT 8SM CLR 15/M00 A3025 RMK AO2
KSOW 071215Z AUTO 00000KT 10SM CLR 14/00 A3025 RMK AO2
KSOW 071155Z AUTO 00000KT 10SM CLR 15/M00 A3024 RMK AO2
KSOW 071135Z AUTO 00000KT 10SM CLR 15/00 A3024 RMK AO2
KSOW 071115Z AUTO 18004KT 10SM CLR 16/M01 A3023 RMK AO2
KSOW 071055Z AUTO 00000KT 10SM CLR 16/M00 A3024 RMK AO2
KSOW 071035Z AUTO 00000KT 9SM CLR 16/M01 A3023 RMK AO2
KSOW 071015Z AUTO 15004KT 10SM CLR 15/M00 A3023 RMK AO2
KSOW 070955Z AUTO 15005KT 10SM CLR 16/M00 A3023 RMK AO2
KSOW 070935Z AUTO 00000KT 9SM CLR 17/M01 A3023 RMK AO2
KSOW 070915Z AUTO 00000KT 10SM CLR 16/M00 A3023 RMK AO2
KSOW 070855Z AUTO 16006KT 10SM CLR 16/M01 A3023 RMK AO2